Weather at London Stansted Airport

Public forecast

Using degrees Celsius for public forecast. Weather courtesy of forecast.io.

Current aviation weather report (METAR) for London Stansted Airport

Retrieved 2021/07/27 07:20 UTC (31 minutes ago):

EGSS 270720Z AUTO 26006KT 9999 NCD 18/15 Q1008

Aviation forecast (TAF) for London Stansted Airport

Retrieved 2021/07/27 06:00 UTC (2 hours ago):

TAF EGSS 270455Z 2706/2812 22007KT 9999 FEW025 PROB30 TEMPO 2706/2708 7000 SHRA BKN009 TEMPO 2710/2720 7000 SHRA PROB40 TEMPO 2710/2720 4000 +SHRA BKN014CB PROB30 TEMPO 2720/2807 7000 SHRA BKN009 PROB40 TEMPO 2809/2812 24016G26KT 3000 +SHRA